createdAt,value
2019-05-29T00:00:43.555Z,79.00
2019-05-29T00:03:12.505Z,79.00
2019-05-29T00:05:41.423Z,79.00
2019-05-29T00:08:10.362Z,78.90
2019-05-29T00:10:38.998Z,79.20
2019-05-29T00:13:08.195Z,79.30
2019-05-29T00:15:36.703Z,79.40
2019-05-29T00:18:06.193Z,79.90
2019-05-29T00:20:34.703Z,79.90
2019-05-29T00:23:03.442Z,80.20
2019-05-29T00:25:31.844Z,80.40
2019-05-29T00:28:00.243Z,80.40
2019-05-29T00:30:28.638Z,80.40
2019-05-29T00:32:57.038Z,80.30
2019-05-29T00:35:25.460Z,80.40
2019-05-29T00:37:53.858Z,80.20
2019-05-29T00:40:22.338Z,80.00
2019-05-29T00:42:50.751Z,79.90
2019-05-29T00:45:19.303Z,79.90
2019-05-29T00:47:47.773Z,79.80
2019-05-29T00:50:16.516Z,80.10
2019-05-29T00:52:44.940Z,80.00
2019-05-29T00:55:14.700Z,80.00
2019-05-29T00:57:43.167Z,79.90
2019-05-29T01:00:11.728Z,79.90
2019-05-29T01:02:40.140Z,80.10
2019-05-29T01:05:09.831Z,80.50
2019-05-29T01:07:38.588Z,80.80
2019-05-29T01:10:08.526Z,81.00
2019-05-29T01:12:36.935Z,81.00
2019-05-29T01:15:08.480Z,81.00
2019-05-29T01:17:36.883Z,81.10
2019-05-29T01:20:06.653Z,81.20
2019-05-29T01:22:35.238Z,81.20
2019-05-29T01:25:03.920Z,81.30
2019-05-29T01:27:51.654Z,81.30
2019-05-29T01:30:21.208Z,81.30
2019-05-29T01:32:49.763Z,81.10
2019-05-29T01:35:18.173Z,81.20
2019-05-29T01:37:46.579Z,81.30
2019-05-29T01:40:21.159Z,81.30
2019-05-29T01:42:45.606Z,81.70
2019-05-29T01:45:15.418Z,81.40
2019-05-29T01:47:43.916Z,82.10
2019-05-29T01:50:12.696Z,81.20
2019-05-29T01:52:41.147Z,81.40
2019-05-29T01:55:09.902Z,81.40
2019-05-29T01:57:38.303Z,81.30
2019-05-29T02:00:08.529Z,81.00
2019-05-29T02:02:36.950Z,81.00
2019-05-29T02:05:06.386Z,81.00
2019-05-29T02:07:34.777Z,81.30
2019-05-29T02:10:04.904Z,81.30
2019-05-29T02:12:33.298Z,82.20
2019-05-29T02:15:01.724Z,81.60
2019-05-29T02:17:30.215Z,81.60
2019-05-29T02:19:58.612Z,81.60
2019-05-29T02:22:27.134Z,81.60
2019-05-29T02:24:55.622Z,81.90
2019-05-29T02:27:24.043Z,81.80
2019-05-29T02:29:52.451Z,81.80
2019-05-29T02:32:21.371Z,81.60
2019-05-29T02:34:49.878Z,81.40
2019-05-29T02:37:18.333Z,81.30
2019-05-29T02:39:46.785Z,81.50
2019-05-29T02:42:15.206Z,81.50
2019-05-29T02:44:43.612Z,81.30
2019-05-29T02:47:12.139Z,82.30
2019-05-29T02:49:40.545Z,81.70
2019-05-29T02:52:08.939Z,81.50
2019-05-29T02:54:37.354Z,81.40
2019-05-29T02:57:05.807Z,81.50
2019-05-29T02:59:34.241Z,81.50
2019-05-29T03:02:02.648Z,81.60
2019-05-29T03:04:32.818Z,81.60
2019-05-29T03:07:01.384Z,82.00
2019-05-29T03:09:30.712Z,82.10
2019-05-29T03:12:00.416Z,82.10
2019-05-29T03:14:29.648Z,82.20
2019-05-29T03:16:58.750Z,82.30
2019-05-29T03:19:28.015Z,82.10
2019-05-29T03:21:56.584Z,82.10
2019-05-29T03:24:26.690Z,82.00
2019-05-29T03:26:55.633Z,81.90
2019-05-29T03:29:25.759Z,82.00
2019-05-29T03:31:54.200Z,82.20
2019-05-29T03:34:22.627Z,82.50
2019-05-29T03:36:51.151Z,82.60
2019-05-29T03:39:19.547Z,82.80
2019-05-29T03:41:47.944Z,83.10
2019-05-29T03:44:16.370Z,83.00
2019-05-29T03:46:46.213Z,82.90
2019-05-29T03:49:14.864Z,82.80
2019-05-29T03:51:43.282Z,82.80
2019-05-29T03:54:11.712Z,83.20
2019-05-29T03:56:40.105Z,83.10
2019-05-29T03:59:08.540Z,83.20
2019-05-29T04:01:37.470Z,83.00
2019-05-29T04:04:06.073Z,83.60
2019-05-29T04:06:35.554Z,83.50
2019-05-29T04:09:06.369Z,83.50
2019-05-29T04:11:37.670Z,83.70
2019-05-29T04:14:06.439Z,83.70
2019-05-29T04:16:52.823Z,83.90
2019-05-29T04:19:06.439Z,84.10
2019-05-29T04:21:38.397Z,84.10
2019-05-29T04:24:06.993Z,84.00
2019-05-29T04:26:38.460Z,84.10
2019-05-29T04:29:07.015Z,83.90
2019-05-29T04:31:36.577Z,83.90
2019-05-29T04:34:05.471Z,84.10
2019-05-29T04:36:34.870Z,84.10
2019-05-29T04:39:05.162Z,84.10
2019-05-29T04:41:34.702Z,84.10
2019-05-29T04:44:03.446Z,84.10
2019-05-29T04:46:31.857Z,84.20
2019-05-29T04:49:00.284Z,84.20
2019-05-29T04:51:29.263Z,84.20
2019-05-29T04:53:58.046Z,84.20
2019-05-29T04:56:26.459Z,84.30
2019-05-29T04:58:54.969Z,84.40
2019-05-29T05:01:23.380Z,84.50
2019-05-29T05:06:19.981Z,83.60
2019-05-29T05:08:48.370Z,84.40
2019-05-29T05:11:17.313Z,84.30
2019-05-29T05:13:45.980Z,84.40
2019-05-29T05:16:14.403Z,84.80
2019-05-29T05:18:42.805Z,84.70
2019-05-29T05:21:11.220Z,84.70
2019-05-29T05:23:40.562Z,84.80
2019-05-29T05:26:09.162Z,85.10
2019-05-29T05:28:38.598Z,85.70
2019-05-29T05:31:07.162Z,87.70
2019-05-29T05:33:36.641Z,90.00
2019-05-29T05:36:05.224Z,88.60
2019-05-29T05:38:34.615Z,84.60
2019-05-29T05:41:03.266Z,79.20
2019-05-29T05:43:32.776Z,70.70
2019-05-29T05:46:01.256Z,66.20
2019-05-29T05:48:30.884Z,62.10
2019-05-29T05:50:59.347Z,58.70
2019-05-29T05:53:27.773Z,54.30
2019-05-29T05:55:56.448Z,50.80
2019-05-29T05:58:24.850Z,48.40
2019-05-29T06:00:53.263Z,46.10
2019-05-29T06:03:21.704Z,44.80
2019-05-29T06:05:50.119Z,42.90
2019-05-29T06:08:18.587Z,40.70
2019-05-29T06:10:47.365Z,38.90
2019-05-29T06:13:15.774Z,38.60
2019-05-29T06:15:44.535Z,37.20
2019-05-29T06:18:21.051Z,36.50
2019-05-29T06:20:43.257Z,35.90
2019-05-29T06:23:11.796Z,35.20
2019-05-29T06:25:40.763Z,35.30
2019-05-29T06:28:10.538Z,34.70
2019-05-29T06:30:40.748Z,34.10
2019-05-29T06:33:09.109Z,32.90
2019-05-29T06:35:37.649Z,32.60
2019-05-29T06:38:06.022Z,32.40
2019-05-29T06:40:38.326Z,32.40
2019-05-29T06:43:11.161Z,33.00
2019-05-29T06:45:38.273Z,32.90
2019-05-29T06:48:08.652Z,32.60
2019-05-29T06:50:37.434Z,32.50
2019-05-29T06:53:06.020Z,32.80
2019-05-29T06:55:35.670Z,32.20
2019-05-29T06:58:04.380Z,32.10
2019-05-29T07:00:35.664Z,32.70
2019-05-29T07:03:02.990Z,32.70
2019-05-29T07:05:31.473Z,32.30
2019-05-29T07:08:17.046Z,31.30
2019-05-29T07:10:30.076Z,31.40
2019-05-29T07:12:58.470Z,31.50
2019-05-29T07:15:26.893Z,31.40
2019-05-29T07:17:55.278Z,31.40
2019-05-29T07:20:24.442Z,31.20
2019-05-29T07:22:55.925Z,30.90
2019-05-29T07:25:24.342Z,30.80
2019-05-29T07:27:52.822Z,31.00
2019-05-29T07:30:21.960Z,30.80
2019-05-29T07:32:57.634Z,31.30
2019-05-29T07:35:20.516Z,31.50
2019-05-29T07:37:48.945Z,32.40
2019-05-29T07:40:18.414Z,32.40
2019-05-29T07:42:54.965Z,32.70
2019-05-29T07:45:17.383Z,32.60
2019-05-29T07:47:46.706Z,31.70
2019-05-29T07:50:15.722Z,31.50
2019-05-29T07:52:45.368Z,31.30
2019-05-29T07:55:14.647Z,31.90
2019-05-29T07:57:43.076Z,31.80
2019-05-29T08:00:13.078Z,30.50
2019-05-29T08:02:41.572Z,30.80
2019-05-29T08:05:10.536Z,30.20
2019-05-29T08:07:39.394Z,30.30
2019-05-29T08:10:08.619Z,30.10
2019-05-29T08:12:41.708Z,29.60
2019-05-29T08:15:07.599Z,29.60
2019-05-29T08:17:36.072Z,29.60
2019-05-29T08:20:07.975Z,29.90
2019-05-29T08:22:36.736Z,29.60
2019-05-29T08:25:06.296Z,29.30
2019-05-29T08:27:34.999Z,29.50
2019-05-29T08:30:08.466Z,29.90
2019-05-29T08:32:36.897Z,31.20
2019-05-29T08:35:08.323Z,30.60
2019-05-29T08:37:36.745Z,30.20
2019-05-29T08:40:06.491Z,29.90
2019-05-29T08:42:34.925Z,30.30
2019-05-29T08:45:04.856Z,31.00
2019-05-29T08:47:33.276Z,32.00
2019-05-29T08:50:17.551Z,33.30
2019-05-29T08:52:32.088Z,32.60
2019-05-29T08:55:00.507Z,31.90
2019-05-29T08:57:28.935Z,31.90
2019-05-29T08:59:57.685Z,31.00
2019-05-29T09:02:26.220Z,31.20
2019-05-29T09:04:54.988Z,31.70
2019-05-29T09:07:23.411Z,32.10
2019-05-29T09:09:53.235Z,31.10
2019-05-29T09:12:21.938Z,31.00
2019-05-29T09:14:50.361Z,30.50
2019-05-29T09:17:18.784Z,30.70
2019-05-29T09:19:47.194Z,31.50
2019-05-29T09:22:16.492Z,33.60
2019-05-29T09:24:45.097Z,33.60
2019-05-29T09:27:14.473Z,34.10
2019-05-29T09:29:43.779Z,34.10
2019-05-29T09:32:13.491Z,33.70
2019-05-29T09:34:42.415Z,33.50
2019-05-29T09:37:10.974Z,33.90
2019-05-29T09:39:39.563Z,34.40
2019-05-29T09:42:08.097Z,34.20
2019-05-29T09:44:39.461Z,34.50
2019-05-29T09:47:06.756Z,34.50
2019-05-29T09:49:35.164Z,34.80
2019-05-29T09:52:04.158Z,35.40
2019-05-29T09:54:32.751Z,35.10
2019-05-29T09:57:01.345Z,35.50
2019-05-29T09:59:31.020Z,35.60
2019-05-29T10:02:00.339Z,36.30
2019-05-29T10:04:29.566Z,35.70
2019-05-29T10:06:57.987Z,35.90
2019-05-29T10:09:26.491Z,36.10
2019-05-29T10:11:58.592Z,35.30
2019-05-29T10:14:25.282Z,34.30
2019-05-29T10:16:56.145Z,34.20
2019-05-29T10:19:23.821Z,34.30
2019-05-29T10:21:52.263Z,35.80
2019-05-29T10:24:20.723Z,35.40
2019-05-29T10:26:49.128Z,36.10
2019-05-29T10:29:17.549Z,35.30
2019-05-29T10:31:47.723Z,34.80
2019-05-29T10:34:16.240Z,34.40
2019-05-29T10:36:48.270Z,34.60
2019-05-29T10:39:14.910Z,34.70
2019-05-29T10:41:44.595Z,35.20
2019-05-29T10:44:13.341Z,35.00
2019-05-29T10:46:41.824Z,35.70
2019-05-29T10:49:10.264Z,35.90
2019-05-29T10:51:56.980Z,35.40
2019-05-29T10:54:08.878Z,35.40
2019-05-29T10:56:37.287Z,36.40
2019-05-29T10:59:05.961Z,36.40
2019-05-29T11:01:34.744Z,36.90
2019-05-29T11:04:03.153Z,36.20
2019-05-29T11:06:31.558Z,36.30
2019-05-29T11:08:59.963Z,36.50
2019-05-29T11:11:28.384Z,36.30
2019-05-29T11:13:57.137Z,36.80
2019-05-29T11:16:25.688Z,36.50
2019-05-29T11:18:55.240Z,36.40
2019-05-29T11:21:24.110Z,36.80
2019-05-29T11:23:53.826Z,37.00
2019-05-29T11:26:22.528Z,37.20
2019-05-29T11:28:52.306Z,38.00
2019-05-29T11:31:20.960Z,37.50
2019-05-29T11:33:50.562Z,36.30
2019-05-29T11:36:19.237Z,36.10
2019-05-29T11:38:52.479Z,36.70
2019-05-29T11:41:26.488Z,36.90
2019-05-29T11:43:51.233Z,37.70
2019-05-29T11:46:19.638Z,37.20
2019-05-29T11:48:48.038Z,36.30
2019-05-29T11:51:16.508Z,36.10
2019-05-29T11:53:45.230Z,36.70
2019-05-29T11:56:13.639Z,35.70
2019-05-29T11:58:42.052Z,36.10
2019-05-29T12:01:10.470Z,36.30
2019-05-29T12:03:58.178Z,36.70
2019-05-29T12:06:09.079Z,36.30
2019-05-29T12:08:37.491Z,37.40
2019-05-29T12:11:07.141Z,37.00
2019-05-29T12:13:35.789Z,36.70
2019-05-29T12:16:04.281Z,35.40
2019-05-29T12:18:32.691Z,35.30
2019-05-29T12:21:01.764Z,36.10
2019-05-29T12:23:31.291Z,35.60
2019-05-29T12:26:16.683Z,35.50
2019-05-29T12:28:29.967Z,35.60
2019-05-29T12:30:59.061Z,35.60
2019-05-29T12:33:27.672Z,35.30
2019-05-29T12:35:59.124Z,35.20
2019-05-29T12:38:27.635Z,35.40
2019-05-29T12:40:57.584Z,35.20
2019-05-29T12:43:28.099Z,35.30
2019-05-29T12:45:57.709Z,34.60
2019-05-29T12:48:26.335Z,33.90
2019-05-29T12:50:56.035Z,34.10
2019-05-29T12:53:30.295Z,34.50
2019-05-29T12:55:56.117Z,34.90
2019-05-29T12:58:24.703Z,35.30
2019-05-29T13:00:54.437Z,34.40
2019-05-29T13:03:23.092Z,33.40
2019-05-29T13:05:51.518Z,33.10
2019-05-29T13:08:19.920Z,32.40
2019-05-29T13:10:48.337Z,32.30
2019-05-29T13:13:16.738Z,32.90
2019-05-29T13:15:45.443Z,32.50
2019-05-29T13:18:13.841Z,32.50
2019-05-29T13:20:42.255Z,32.60
2019-05-29T13:23:10.666Z,32.70
2019-05-29T13:25:39.165Z,32.00
2019-05-29T13:28:07.556Z,32.10
2019-05-29T13:30:35.962Z,31.90
2019-05-29T13:33:07.371Z,32.20
2019-05-29T13:35:34.512Z,32.00
2019-05-29T13:38:03.315Z,31.70
2019-05-29T13:40:31.897Z,31.00
2019-05-29T13:43:05.680Z,30.60
2019-05-29T13:45:30.435Z,31.20
2019-05-29T13:47:59.180Z,31.50
2019-05-29T13:50:27.744Z,31.20
2019-05-29T13:52:57.093Z,31.40
2019-05-29T13:55:25.634Z,32.30
2019-05-29T13:57:54.056Z,31.70
2019-05-29T14:00:33.752Z,31.90
2019-05-29T14:02:52.685Z,32.50
2019-05-29T14:05:21.160Z,32.10
2019-05-29T14:07:49.634Z,32.10
2019-05-29T14:10:18.381Z,31.90
2019-05-29T14:12:46.889Z,31.70
2019-05-29T14:15:15.751Z,31.80
2019-05-29T14:17:44.161Z,31.30
2019-05-29T14:20:13.514Z,30.60
2019-05-29T14:22:41.952Z,30.60
2019-05-29T14:25:11.665Z,31.50
2019-05-29T14:27:40.264Z,31.80
2019-05-29T14:30:10.624Z,31.80
2019-05-29T14:32:39.354Z,31.60
2019-05-29T14:35:10.436Z,31.60
2019-05-29T14:37:38.712Z,31.30
2019-05-29T14:40:08.013Z,31.20
2019-05-29T14:42:36.569Z,31.50
2019-05-29T14:45:08.446Z,32.20
2019-05-29T14:47:36.999Z,31.50
2019-05-29T14:50:09.568Z,31.50
2019-05-29T14:52:39.371Z,31.20
2019-05-29T14:55:09.360Z,31.50
2019-05-29T14:57:38.447Z,31.50
2019-05-29T15:00:20.967Z,32.00
2019-05-29T15:02:39.575Z,31.90
2019-05-29T15:05:09.740Z,31.30
2019-05-29T15:07:38.459Z,32.00
2019-05-29T15:10:19.783Z,32.50
2019-05-29T15:12:38.939Z,32.20
2019-05-29T15:15:08.969Z,31.80
2019-05-29T15:17:37.800Z,31.70
2019-05-29T15:20:10.407Z,31.60
2019-05-29T15:22:40.029Z,31.80
2019-05-29T15:25:18.469Z,31.90
2019-05-29T15:27:40.429Z,32.30
2019-05-29T15:30:11.313Z,33.10
2019-05-29T15:32:40.450Z,33.10
2019-05-29T15:35:14.428Z,33.20
2019-05-29T15:37:40.587Z,33.80
2019-05-29T15:40:11.142Z,33.70
2019-05-29T15:42:39.673Z,33.80
2019-05-29T15:45:10.144Z,33.90
2019-05-29T15:47:38.543Z,33.30
2019-05-29T15:50:11.577Z,33.00
2019-05-29T15:52:40.314Z,32.70
2019-05-29T15:55:24.888Z,33.00
2019-05-29T15:57:40.906Z,32.50
2019-05-29T16:00:11.573Z,32.30
2019-05-29T16:02:40.405Z,32.30
2019-05-29T16:05:10.873Z,32.40
2019-05-29T16:07:39.770Z,32.50
2019-05-29T16:10:13.068Z,32.80
2019-05-29T16:12:40.020Z,32.40
2019-05-29T16:15:11.047Z,32.20
2019-05-29T16:17:39.760Z,32.30
2019-05-29T16:20:10.343Z,32.70
2019-05-29T16:22:39.198Z,32.90
2019-05-29T16:25:08.276Z,33.20
2019-05-29T16:27:36.680Z,33.00
2019-05-29T16:30:11.226Z,33.20
2019-05-29T16:32:39.930Z,32.70
2019-05-29T16:35:09.088Z,32.80
2019-05-29T16:37:37.592Z,32.60
2019-05-29T16:40:08.887Z,32.80
2019-05-29T16:42:37.293Z,32.60
2019-05-29T16:45:08.463Z,32.70
2019-05-29T16:47:36.892Z,31.90
2019-05-29T16:50:08.700Z,32.40
2019-05-29T16:52:37.542Z,32.60
2019-05-29T16:55:06.588Z,32.80
2019-05-29T16:57:35.019Z,33.00
2019-05-29T17:00:07.520Z,33.10
2019-05-29T17:02:35.927Z,32.80
2019-05-29T17:05:06.315Z,32.60
2019-05-29T17:07:34.756Z,33.00
2019-05-29T17:10:04.842Z,32.80
2019-05-29T17:12:33.255Z,33.20
2019-05-29T17:15:01.682Z,33.00
2019-05-29T17:17:30.671Z,32.20
2019-05-29T17:19:59.196Z,32.10
2019-05-29T17:22:27.622Z,32.10
2019-05-29T17:24:56.043Z,32.20
2019-05-29T17:27:25.160Z,32.70
2019-05-29T17:29:53.761Z,33.20
2019-05-29T17:32:23.205Z,33.50
2019-05-29T17:34:51.783Z,33.40
2019-05-29T17:37:21.037Z,33.40
2019-05-29T17:39:49.675Z,33.70
2019-05-29T17:42:18.183Z,33.90
2019-05-29T17:44:46.678Z,33.80
2019-05-29T17:47:15.581Z,34.00
2019-05-29T17:49:44.361Z,33.80
2019-05-29T17:52:12.769Z,34.20
2019-05-29T17:54:41.170Z,34.40
2019-05-29T17:57:09.651Z,34.30
2019-05-29T17:59:38.116Z,34.20
2019-05-29T18:02:06.542Z,34.50
2019-05-29T18:04:34.969Z,34.70
2019-05-29T18:07:03.390Z,35.00
2019-05-29T18:09:31.874Z,34.80
2019-05-29T18:12:00.542Z,34.90
2019-05-29T18:14:28.960Z,35.10
2019-05-29T18:17:01.659Z,35.30
2019-05-29T18:19:30.101Z,35.50
2019-05-29T18:21:58.822Z,36.00
2019-05-29T18:24:28.048Z,36.10
2019-05-29T18:26:59.056Z,36.30
2019-05-29T18:29:26.867Z,36.50
2019-05-29T18:31:55.292Z,36.90
2019-05-29T18:34:25.115Z,37.30
2019-05-29T18:36:53.733Z,37.70
2019-05-29T18:39:22.223Z,37.70
2019-05-29T18:41:50.648Z,37.90
2019-05-29T18:44:19.074Z,38.20
2019-05-29T18:46:47.480Z,38.50
2019-05-29T18:49:15.995Z,38.80
2019-05-29T18:51:44.446Z,39.00
2019-05-29T18:54:12.924Z,39.30
2019-05-29T18:56:41.349Z,39.60
2019-05-29T18:59:09.757Z,40.00
2019-05-29T19:01:38.221Z,40.40
2019-05-29T19:04:06.644Z,40.50
2019-05-29T19:06:35.063Z,40.70
2019-05-29T19:09:05.171Z,41.20
2019-05-29T19:11:33.618Z,41.50
2019-05-29T19:14:02.033Z,41.70
2019-05-29T19:16:30.442Z,42.00
2019-05-29T19:18:58.859Z,42.40
2019-05-29T19:21:28.379Z,42.70
2019-05-29T19:23:59.589Z,43.00
2019-05-29T19:26:28.767Z,43.20
2019-05-29T19:28:57.344Z,43.60
2019-05-29T19:31:27.073Z,43.80
2019-05-29T19:33:55.650Z,44.20
2019-05-29T19:36:24.075Z,44.50
2019-05-29T19:38:52.486Z,44.80
2019-05-29T19:41:21.493Z,45.20
2019-05-29T19:43:50.185Z,45.70
2019-05-29T19:46:18.757Z,46.00
2019-05-29T19:48:47.173Z,46.20
2019-05-29T19:51:15.614Z,46.50
2019-05-29T19:53:44.114Z,46.70
2019-05-29T19:56:12.822Z,47.00
2019-05-29T19:58:41.294Z,47.40
2019-05-29T20:01:09.724Z,47.70
2019-05-29T20:03:39.438Z,47.80
2019-05-29T20:06:07.921Z,48.00
2019-05-29T20:08:39.400Z,48.00
2019-05-29T20:11:07.243Z,48.20
2019-05-29T20:13:35.876Z,48.40
2019-05-29T20:16:04.431Z,48.70
2019-05-29T20:18:34.064Z,48.90
2019-05-29T20:21:02.658Z,49.00
2019-05-29T20:23:32.487Z,49.10
2019-05-29T20:26:00.997Z,49.40
2019-05-29T20:28:30.083Z,49.50
2019-05-29T20:30:58.608Z,49.60
2019-05-29T20:33:27.029Z,49.50
2019-05-29T20:35:55.696Z,49.70
2019-05-29T20:38:24.107Z,49.80
2019-05-29T20:40:52.544Z,50.00
2019-05-29T20:43:20.958Z,50.10
2019-05-29T20:45:49.371Z,50.70
2019-05-29T20:48:17.807Z,50.20
2019-05-29T20:50:46.444Z,50.40
2019-05-29T20:53:14.900Z,50.40
2019-05-29T20:55:43.313Z,50.40
2019-05-29T20:58:23.992Z,50.40
2019-05-29T21:00:42.373Z,50.70
2019-05-29T21:03:10.992Z,50.60
2019-05-29T21:05:40.713Z,50.70
2019-05-29T21:08:09.312Z,50.70
2019-05-29T21:10:37.735Z,50.80
2019-05-29T21:13:06.135Z,51.00
2019-05-29T21:15:35.581Z,51.00
2019-05-29T21:18:04.157Z,51.10
2019-05-29T21:20:32.562Z,51.10
2019-05-29T21:23:00.979Z,51.20
2019-05-29T21:25:29.414Z,51.30
2019-05-29T21:27:57.828Z,51.40
2019-05-29T21:30:26.451Z,51.40
2019-05-29T21:32:55.154Z,51.60
2019-05-29T21:35:23.579Z,51.50
2019-05-29T21:37:52.018Z,51.60
2019-05-29T21:40:20.933Z,51.70
2019-05-29T21:42:49.434Z,51.80
2019-05-29T21:45:18.091Z,51.90
2019-05-29T21:47:47.303Z,51.90
2019-05-29T21:50:16.131Z,52.00
2019-05-29T21:52:45.583Z,52.70
2019-05-29T21:55:14.466Z,52.10
2019-05-29T21:57:45.570Z,52.20
2019-05-29T22:00:15.606Z,52.30
2019-05-29T22:02:44.512Z,52.40
2019-05-29T22:05:13.359Z,53.00
2019-05-29T22:07:42.777Z,52.80
2019-05-29T22:10:12.898Z,53.10
2019-05-29T22:12:41.282Z,53.30
2019-05-29T22:15:09.787Z,53.40
2019-05-29T22:17:38.267Z,53.40
2019-05-29T22:20:07.437Z,53.70
2019-05-29T22:22:35.880Z,53.60
2019-05-29T22:25:07.707Z,53.60
2019-05-29T22:27:37.186Z,53.80
2019-05-29T22:30:07.619Z,53.80
2019-05-29T22:32:36.053Z,54.00
2019-05-29T22:35:06.061Z,53.80
2019-05-29T22:37:34.555Z,54.00
2019-05-29T22:40:04.557Z,54.10
2019-05-29T22:42:32.981Z,54.20
2019-05-29T22:45:02.257Z,54.20
2019-05-29T22:47:30.879Z,54.20
2019-05-29T22:49:59.878Z,54.30
2019-05-29T22:52:28.387Z,54.40
2019-05-29T22:54:58.029Z,54.60
2019-05-29T22:57:26.664Z,54.60
2019-05-29T22:59:55.924Z,54.60
2019-05-29T23:02:24.517Z,54.70
2019-05-29T23:04:54.144Z,54.90
2019-05-29T23:07:22.730Z,54.80
2019-05-29T23:09:52.138Z,55.00
2019-05-29T23:12:20.643Z,55.00
2019-05-29T23:14:49.384Z,55.10
2019-05-29T23:17:17.843Z,55.20
2019-05-29T23:19:46.291Z,55.20
2019-05-29T23:22:14.714Z,55.40
2019-05-29T23:24:43.107Z,55.50
2019-05-29T23:27:11.532Z,55.60
2019-05-29T23:29:49.031Z,55.60
2019-05-29T23:32:10.173Z,55.80
2019-05-29T23:34:38.596Z,56.00
2019-05-29T23:37:07.022Z,55.90
2019-05-29T23:39:35.668Z,56.20
2019-05-29T23:42:23.742Z,56.40
2019-05-29T23:44:52.834Z,56.60
2019-05-29T23:47:22.475Z,56.80
2019-05-29T23:49:50.980Z,56.90
2019-05-29T23:52:19.463Z,57.00
2019-05-29T23:54:47.878Z,57.20
2019-05-29T23:57:16.287Z,57.40
2019-05-29T23:59:44.713Z,57.10
